Aviation Digital Data Service (ADDS)

Output produced by METARs form (1005 UTC 23 October 2017)
found at http://aviationweather.gov/adds/metars/
 
KAOO 230920Z 2309/2406 17004KT P6SM BKN250 
     FM231200 16005KT P6SM BKN025 
     FM231500 16010KT P6SM BKN050 
     FM232000 15015G20KT P6SM OVC025 
     FM240100 17015G20KT 5SM SHRA OVC015 WS020/16045KT